Dades meteomassalio
Diari Summary for Marc 9, 2018 Units:  Both    English   Metric
« Previous Day
Next Day »
Diari Semanal Mensual Anual Personalitzat
  Maxima: Minima: Mijana:
Temperatura: TemperatureC °F /  -17.8 °C 3.3 °F /  -15.9 °C 12.4 °F /  -10.9 °C
Rosada: DewpointC °F /  -17.8 °C 2.0 °F /  -16.7 °C 7.4 °F /  -13.7 °C
Humitat: Humidity % 49 % 74 %
Velocitat del vent: WindSpeedKMH mph /  0 km/h - 3.5 mph /  5.6 km/h
Racha vent: WindSpeedGustKMH mph /  0 km/h - -
Vent:- - SE
Pressio: PressurehPa in /  0 hPa 1010.0 in /  34198.6 hPa -
Pluja: 0.3 in /  7.62 mm    
Historical Graphs
 
 
Tabular Data for Marc 9, 2018
Time Temperature Dew Point Pressure Wind Wind Speed Wind Gust Humidity Rainfall Rate (Hourly) solar Conditions
TemperatureC °F /  -17.8 °C DewpointC °F /  -17.8 °C PressurehPa in /  0 hPa Calm     Humidity % HourlyPrecipMM in /  0 mm SolarRadiationWatts/m^2 W/m2 Conditions
00:04 5.0 °F /  -15 °C 3.3 °F /  -15.9 °C 1015.5 in /  34384.8 hPa Calm     89 % 0.0 in /  0 mm 0.0 W/m2 CLR
00:09 5.0 °F /  -15 °C 3.3 °F /  -15.9 °C 1015.5 in /  34384.8 hPa Calm     89 % 0.0 in /  0 mm 0.0 W/m2 CLR
00:14 5.0 °F /  -15 °C 3.2 °F /  -16 °C 1015.5 in /  34384.8 hPa Calm     88 % 0.0 in /  0 mm 0.0 W/m2 CLR
00:19 5.0 °F /  -15 °C 3.3 °F /  -15.9 °C 1015.5 in /  34384.8 hPa Calm     89 % 0.0 in /  0 mm 0.0 W/m2 CLR
00:24 5.0 °F /  -15 °C 3.3 °F /  -15.9 °C 1015.5 in /  34384.8 hPa Calm     89 % 0.0 in /  0 mm 0.0 W/m2 CLR
00:29 5.0 °F /  -15 °C 3.3 °F /  -15.9 °C 1015.5 in /  34384.8 hPa Calm     89 % 0.0 in /  0 mm 0.0 W/m2 CLR
00:34 5.6 °F /  -14.7 °C 3.9 °F /  -15.6 °C 1015.1 in /  34371.3 hPa Calm     89 % 0.0 in /  0 mm 0.0 W/m2 CLR
00:39 5.6 °F /  -14.7 °C 3.9 °F /  -15.6 °C 1015.5 in /  34384.8 hPa Calm     89 % 0.0 in /  0 mm 0.0 W/m2 CLR
00:44 5.6 °F /  -14.7 °C 3.9 °F /  -15.6 °C 1015.5 in /  34384.8 hPa Calm     89 % 0.0 in /  0 mm 0.0 W/m2 CLR
00:49 5.6 °F /  -14.7 °C 3.9 °F /  -15.6 °C 1015.5 in /  34384.8 hPa Calm     89 % 0.0 in /  0 mm 0.0 W/m2 CLR
00:54 5.6 °F /  -14.7 °C 3.9 °F /  -15.6 °C 1015.5 in /  34384.8 hPa Calm     89 % 0.0 in /  0 mm 0.0 W/m2 CLR
00:59 5.6 °F /  -14.7 °C 3.7 °F /  -15.7 °C 1015.5 in /  34384.8 hPa Calm     88 % 0.0 in /  0 mm 0.0 W/m2 CLR
01:04 5.0 °F /  -15 °C 3.2 °F /  -16 °C 1015.5 in /  34384.8 hPa Calm     88 % 0.0 in /  0 mm 0.0 W/m2 CLR
01:09 5.0 °F /  -15 °C 3.2 °F /  -16 °C 1015.5 in /  34384.8 hPa Calm     88 % 0.0 in /  0 mm 0.0 W/m2 CLR
01:14 5.0 °F /  -15 °C 3.3 °F /  -15.9 °C 1015.1 in /  34371.3 hPa Calm     89 % 0.0 in /  0 mm 0.0 W/m2 CLR
01:19 5.0 °F /  -15 °C 3.3 °F /  -15.9 °C 1015.5 in /  34384.8 hPa Calm     89 % 0.0 in /  0 mm 0.0 W/m2 CLR
01:24 5.0 °F /  -15 °C 3.3 °F /  -15.9 °C 1015.5 in /  34384.8 hPa Calm     89 % 0.0 in /  0 mm 0.0 W/m2 CLR
01:29 5.6 °F /  -14.7 °C 3.9 °F /  -15.6 °C 1015.5 in /  34384.8 hPa Calm     89 % 0.0 in /  0 mm 0.0 W/m2 CLR
01:34 5.6 °F /  -14.7 °C 3.9 °F /  -15.6 °C 1015.1 in /  34371.3 hPa Calm     89 % 0.0 in /  0 mm 0.0 W/m2 CLR
01:39 5.6 °F /  -14.7 °C 3.9 °F /  -15.6 °C 1015.5 in /  34384.8 hPa Calm     89 % 0.0 in /  0 mm 0.0 W/m2 CLR
01:44 5.6 °F /  -14.7 °C 3.9 °F /  -15.6 °C 1015.5 in /  34384.8 hPa Calm     89 % 0.0 in /  0 mm 0.0 W/m2 CLR
01:49 5.6 °F /  -14.7 °C 3.9 °F /  -15.6 °C 1015.5 in /  34384.8 hPa Calm     89 % 0.0 in /  0 mm 0.0 W/m2 CLR
01:54 6.1 °F /  -14.4 °C 4.4 °F /  -15.3 °C 1015.5 in /  34384.8 hPa Calm     89 % 0.0 in /  0 mm 0.0 W/m2 CLR
01:59 6.1 °F /  -14.4 °C 4.4 °F /  -15.3 °C 1015.5 in /  34384.8 hPa Calm     89 % 0.0 in /  0 mm 0.0 W/m2 CLR
02:04 6.1 °F /  -14.4 °C 4.4 °F /  -15.3 °C 1015.5 in /  34384.8 hPa Calm     89 % 0.0 in /  0 mm 0.0 W/m2 CLR
02:09 6.1 °F /  -14.4 °C 4.4 °F /  -15.3 °C 1015.5 in /  34384.8 hPa Calm     89 % 0.0 in /  0 mm 0.0 W/m2 CLR
02:14 6.1 °F /  -14.4 °C 4.4 °F /  -15.3 °C 1015.5 in /  34384.8 hPa Calm     89 % 0.0 in /  0 mm 0.0 W/m2 CLR
02:19 6.1 °F /  -14.4 °C 4.4 °F /  -15.3 °C 1015.1 in /  34371.3 hPa Calm     89 % 0.0 in /  0 mm 0.0 W/m2 CLR
02:24 6.1 °F /  -14.4 °C 4.4 °F /  -15.3 °C 1015.1 in /  34371.3 hPa Calm     89 % 0.0 in /  0 mm 0.0 W/m2 CLR
02:29 6.1 °F /  -14.4 °C 4.4 °F /  -15.3 °C 1015.1 in /  34371.3 hPa Calm     89 % 0.0 in /  0 mm 0.0 W/m2 CLR
02:34 6.1 °F /  -14.4 °C 4.4 °F /  -15.3 °C 1015.1 in /  34371.3 hPa Calm     89 % 0.0 in /  0 mm 0.0 W/m2 CLR
02:39 6.1 °F /  -14.4 °C 4.4 °F /  -15.3 °C 1015.1 in /  34371.3 hPa Calm     89 % 0.0 in /  0 mm 0.0 W/m2 CLR
02:44 6.1 °F /  -14.4 °C 4.4 °F /  -15.3 °C 1015.1 in /  34371.3 hPa Calm     89 % 0.0 in /  0 mm 0.0 W/m2 CLR
02:49 6.1 °F /  -14.4 °C 4.4 °F /  -15.3 °C 1015.1 in /  34371.3 hPa Calm     89 % 0.0 in /  0 mm 0.0 W/m2 CLR
02:54 6.1 °F /  -14.4 °C 4.4 °F /  -15.3 °C 1015.1 in /  34371.3 hPa Calm     89 % 0.0 in /  0 mm 0.0 W/m2 CLR
02:59 6.1 °F /  -14.4 °C 4.4 °F /  -15.3 °C 1015.1 in /  34371.3 hPa Calm     89 % 0.0 in /  0 mm 0.0 W/m2 CLR
03:04 6.1 °F /  -14.4 °C 4.4 °F /  -15.3 °C 1015.1 in /  34371.3 hPa Calm     89 % 0.0 in /  0 mm 0.0 W/m2 CLR
03:09 6.1 °F /  -14.4 °C 4.4 °F /  -15.3 °C 1015.1 in /  34371.3 hPa Calm     89 % 0.0 in /  0 mm 0.0 W/m2 CLR
03:14 6.1 °F /  -14.4 °C 4.3 °F /  -15.4 °C 1015.1 in /  34371.3 hPa Calm     88 % 0.0 in /  0 mm 0.0 W/m2 CLR
03:19 6.1 °F /  -14.4 °C 4.3 °F /  -15.4 °C 1015.1 in /  34371.3 hPa Calm     88 % 0.0 in /  0 mm 0.0 W/m2 CLR
03:24 6.1 °F /  -14.4 °C 4.4 °F /  -15.3 °C 1014.8 in /  34361.1 hPa Calm     89 % 0.0 in /  0 mm 0.0 W/m2 CLR
03:29 6.1 °F /  -14.4 °C 4.4 °F /  -15.3 °C 1015.1 in /  34371.3 hPa Calm     89 % 0.0 in /  0 mm 0.0 W/m2 CLR
03:35 6.1 °F /  -14.4 °C 4.4 °F /  -15.3 °C 1014.8 in /  34361.1 hPa Calm     89 % 0.0 in /  0 mm 0.0 W/m2 CLR
03:40 6.1 °F /  -14.4 °C 4.4 °F /  -15.3 °C 1014.8 in /  34361.1 hPa Calm     89 % 0.0 in /  0 mm 0.0 W/m2 CLR
03:45 6.1 °F /  -14.4 °C 4.4 °F /  -15.3 °C 1014.8 in /  34361.1 hPa Calm     89 % 0.0 in /  0 mm 0.0 W/m2 CLR
03:50 6.1 °F /  -14.4 °C 4.4 °F /  -15.3 °C 1014.8 in /  34361.1 hPa Calm     89 % 0.0 in /  0 mm 0.0 W/m2 CLR
03:55 6.1 °F /  -14.4 °C 4.4 °F /  -15.3 °C 1015.1 in /  34371.3 hPa Calm     89 % 0.0 in /  0 mm 0.0 W/m2 CLR
04:00 6.1 °F /  -14.4 °C 4.4 °F /  -15.3 °C 1015.1 in /  34371.3 hPa Calm     89 % 0.0 in /  0 mm 0.0 W/m2 CLR
04:05 6.1 °F /  -14.4 °C 4.4 °F /  -15.3 °C 1015.1 in /  34371.3 hPa Calm     89 % 0.0 in /  0 mm 0.0 W/m2 CLR
04:10 6.1 °F /  -14.4 °C 4.3 °F /  -15.4 °C 1015.1 in /  34371.3 hPa Calm     88 % 0.0 in /  0 mm 0.0 W/m2 CLR
04:15 5.6 °F /  -14.7 °C 3.7 °F /  -15.7 °C 1015.1 in /  34371.3 hPa Calm     88 % 0.0 in /  0 mm 0.0 W/m2 CLR
04:20 5.6 °F /  -14.7 °C 3.7 °F /  -15.7 °C 1015.1 in /  34371.3 hPa Calm     88 % 0.0 in /  0 mm 0.0 W/m2 CLR
04:25 5.6 °F /  -14.7 °C 3.9 °F /  -15.6 °C 1015.1 in /  34371.3 hPa Calm     89 % 0.0 in /  0 mm 0.0 W/m2 CLR
04:30 5.0 °F /  -15 °C 3.3 °F /  -15.9 °C 1015.1 in /  34371.3 hPa Calm     89 % 0.0 in /  0 mm 0.0 W/m2 CLR
04:35 5.0 °F /  -15 °C 3.3 °F /  -15.9 °C 1015.1 in /  34371.3 hPa Calm     89 % 0.0 in /  0 mm 0.0 W/m2 CLR
04:40 5.0 °F /  -15 °C 3.5 °F /  -15.8 °C 1015.1 in /  34371.3 hPa Calm     90 % 0.0 in /  0 mm 0.0 W/m2 CLR
04:45 5.0 °F /  -15 °C 3.5 °F /  -15.8 °C 1015.1 in /  34371.3 hPa Calm     90 % 0.0 in /  0 mm 0.0 W/m2 CLR
04:50 5.0 °F /  -15 °C 3.5 °F /  -15.8 °C 1015.1 in /  34371.3 hPa Calm     90 % 0.0 in /  0 mm 0.0 W/m2 CLR
04:55 5.0 °F /  -15 °C 3.5 °F /  -15.8 °C 1015.1 in /  34371.3 hPa Calm     90 % 0.0 in /  0 mm 0.0 W/m2 CLR
05:00 5.0 °F /  -15 °C 3.5 °F /  -15.8 °C 1015.1 in /  34371.3 hPa Calm     90 % 0.0 in /  0 mm 0.0 W/m2 CLR
05:05 5.0 °F /  -15 °C 3.5 °F /  -15.8 °C 1015.1 in /  34371.3 hPa Calm     90 % 0.0 in /  0 mm 0.0 W/m2 CLR
05:10 5.0 °F /  -15 °C 3.5 °F /  -15.8 °C 1015.1 in /  34371.3 hPa Calm     90 % 0.0 in /  0 mm 0.0 W/m2 CLR
05:15 5.0 °F /  -15 °C 3.3 °F /  -15.9 °C 1015.1 in /  34371.3 hPa Calm     89 % 0.0 in /  0 mm 0.0 W/m2 CLR
05:20 5.0 °F /  -15 °C 3.5 °F /  -15.8 °C 1015.1 in /  34371.3 hPa Calm     90 % 0.0 in /  0 mm 0.0 W/m2 CLR
05:25 5.0 °F /  -15 °C 3.5 °F /  -15.8 °C 1015.5 in /  34384.8 hPa Calm     90 % 0.0 in /  0 mm 0.0 W/m2 CLR
05:30 5.0 °F /  -15 °C 3.5 °F /  -15.8 °C 1015.5 in /  34384.8 hPa Calm     90 % 0.0 in /  0 mm 0.0 W/m2 CLR
05:35 4.4 °F /  -15.3 °C 2.8 °F /  -16.2 °C 1015.5 in /  34384.8 hPa Calm     89 % 0.0 in /  0 mm 0.0 W/m2 CLR
05:40 5.0 °F /  -15 °C 3.5 °F /  -15.8 °C 1015.5 in /  34384.8 hPa Calm     90 % 0.0 in /  0 mm 0.0 W/m2 CLR
05:45 4.4 °F /  -15.3 °C 2.9 °F /  -16.2 °C 1015.5 in /  34384.8 hPa Calm     90 % 0.0 in /  0 mm 0.0 W/m2 CLR
05:50 4.4 °F /  -15.3 °C 2.9 °F /  -16.2 °C 1015.5 in /  34384.8 hPa Calm     90 % 0.0 in /  0 mm 0.0 W/m2 CLR
05:55 4.4 °F /  -15.3 °C 2.9 °F /  -16.2 °C 1015.5 in /  34384.8 hPa Calm     90 % 0.0 in /  0 mm 0.0 W/m2 CLR
06:00 4.4 °F /  -15.3 °C 2.9 °F /  -16.2 °C 1015.5 in /  34384.8 hPa Calm     90 % 0.0 in /  0 mm 0.0 W/m2 CLR
06:05 4.4 °F /  -15.3 °C 3.1 °F /  -16.1 °C 1015.5 in /  34384.8 hPa Calm     91 % 0.0 in /  0 mm 0.0 W/m2 CLR
06:10 4.4 °F /  -15.3 °C 3.1 °F /  -16.1 °C 1015.5 in /  34384.8 hPa Calm     91 % 0.0 in /  0 mm 0.0 W/m2 CLR
06:15 3.9 °F /  -15.6 °C 2.6 °F /  -16.3 °C 1015.5 in /  34384.8 hPa Calm     91 % 0.0 in /  0 mm 0.0 W/m2 CLR
06:20 3.9 °F /  -15.6 °C 2.6 °F /  -16.3 °C 1015.5 in /  34384.8 hPa Calm     91 % 0.0 in /  0 mm 0.0 W/m2 CLR
06:25 3.9 °F /  -15.6 °C 2.6 °F /  -16.3 °C 1015.5 in /  34384.8 hPa Calm     91 % 0.0 in /  0 mm 0.0 W/m2 CLR
06:30 3.9 °F /  -15.6 °C 2.6 °F /  -16.3 °C 1015.5 in /  34384.8 hPa Calm     91 % 0.0 in /  0 mm 0.0 W/m2 CLR
06:35 3.9 °F /  -15.6 °C 2.6 °F /  -16.3 °C 1015.5 in /  34384.8 hPa Calm     91 % 0.0 in /  0 mm 0.0 W/m2 CLR
06:40 3.9 °F /  -15.6 °C 2.4 °F /  -16.4 °C 1015.5 in /  34384.8 hPa Calm     90 % 0.0 in /  0 mm 0.0 W/m2 CLR
06:45 3.9 °F /  -15.6 °C 2.4 °F /  -16.4 °C 1015.1 in /  34371.3 hPa Calm     90 % 0.0 in /  0 mm 0.0 W/m2 CLR
06:50 3.9 °F /  -15.6 °C 2.4 °F /  -16.4 °C 1015.1 in /  34371.3 hPa Calm     90 % 0.0 in /  0 mm 0.0 W/m2 CLR
06:55 3.9 °F /  -15.6 °C 2.6 °F /  -16.3 °C 1015.1 in /  34371.3 hPa Calm     91 % 0.0 in /  0 mm 0.0 W/m2 CLR
07:00 3.9 °F /  -15.6 °C 2.6 °F /  -16.3 °C 1015.1 in /  34371.3 hPa Calm     91 % 0.0 in /  0 mm 0.0 W/m2 CLR
07:05 3.9 °F /  -15.6 °C 2.6 °F /  -16.3 °C 1015.1 in /  34371.3 hPa Calm     91 % 0.0 in /  0 mm 0.0 W/m2 CLR
07:10 3.3 °F /  -15.9 °C 2.0 °F /  -16.7 °C 1015.1 in /  34371.3 hPa Calm     91 % 0.0 in /  0 mm 0.0 W/m2 CLR
07:15 3.3 °F /  -15.9 °C 2.0 °F /  -16.7 °C 1015.1 in /  34371.3 hPa Calm     91 % 0.0 in /  0 mm 0.0 W/m2 OVC
07:20 3.3 °F /  -15.9 °C 2.0 °F /  -16.7 °C 1015.1 in /  34371.3 hPa Calm     91 % 0.0 in /  0 mm 5.0 W/m2 OVC
07:25 3.9 °F /  -15.6 °C 2.6 °F /  -16.3 °C 1015.1 in /  34371.3 hPa Calm     91 % 0.0 in /  0 mm 5.0 W/m2 OVC
07:30 3.9 °F /  -15.6 °C 2.6 °F /  -16.3 °C 1015.1 in /  34371.3 hPa Calm     91 % 0.0 in /  0 mm 9.0 W/m2 BKN
07:35 3.3 °F /  -15.9 °C 2.0 °F /  -16.7 °C 1015.5 in /  34384.8 hPa Calm     91 % 0.0 in /  0 mm 11.0 W/m2 BKN
07:40 3.9 °F /  -15.6 °C 2.6 °F /  -16.3 °C 1015.5 in /  34384.8 hPa Calm     91 % 0.0 in /  0 mm 12.0 W/m2 BKN
07:45 3.9 °F /  -15.6 °C 2.7 °F /  -16.3 °C 1015.5 in /  34384.8 hPa Calm     92 % 0.0 in /  0 mm 14.0 W/m2 BKN
07:50 3.9 °F /  -15.6 °C 2.6 °F /  -16.3 °C 1015.5 in /  34384.8 hPa Calm     91 % 0.0 in /  0 mm 21.0 W/m2 BKN
07:55 3.9 °F /  -15.6 °C 2.7 °F /  -16.3 °C 1015.5 in /  34384.8 hPa Calm     92 % 0.0 in /  0 mm 32.0 W/m2 BKN
08:00 3.9 °F /  -15.6 °C 2.6 °F /  -16.3 °C 1015.5 in /  34384.8 hPa Calm     91 % 0.0 in /  0 mm 49.0 W/m2 SCT
08:05 3.9 °F /  -15.6 °C 2.6 °F /  -16.3 °C 1015.5 in /  34384.8 hPa Calm     91 % 0.0 in /  0 mm 49.0 W/m2 SCT
08:10 4.4 °F /  -15.3 °C 3.3 °F /  -15.9 °C 1015.5 in /  34384.8 hPa Calm     92 % 0.0 in /  0 mm 67.0 W/m2 SCT
08:15 4.4 °F /  -15.3 °C 3.3 °F /  -15.9 °C 1015.5 in /  34384.8 hPa Calm     92 % 0.0 in /  0 mm 70.0 W/m2 SCT
08:20 5.0 °F /  -15 °C 3.8 °F /  -15.7 °C 1015.5 in /  34384.8 hPa Calm     92 % 0.0 in /  0 mm 105.0 W/m2 CLR
08:25 5.0 °F /  -15 °C 3.7 °F /  -15.7 °C 1015.5 in /  34384.8 hPa Calm     91 % 0.0 in /  0 mm 116.0 W/m2 CLR
08:30 5.0 °F /  -15 °C 3.7 °F /  -15.7 °C 1015.5 in /  34384.8 hPa Calm     91 % 0.0 in /  0 mm 141.0 W/m2 CLR
08:35 5.6 °F /  -14.7 °C 4.2 °F /  -15.4 °C 1015.1 in /  34371.3 hPa Calm     91 % 0.0 in /  0 mm 98.0 W/m2 CLR
08:40 5.6 °F /  -14.7 °C 4.1 °F /  -15.5 °C 1015.5 in /  34384.8 hPa Calm     90 % 0.0 in /  0 mm 178.0 W/m2 CLR
08:45 6.1 °F /  -14.4 °C 4.6 °F /  -15.2 °C 1015.5 in /  34384.8 hPa Calm     90 % 0.0 in /  0 mm 197.0 W/m2 CLR
08:50 6.1 °F /  -14.4 °C 4.4 °F /  -15.3 °C 1015.5 in /  34384.8 hPa Calm     89 % 0.0 in /  0 mm 216.0 W/m2 CLR
08:55 6.7 °F /  -14.1 °C 4.7 °F /  -15.2 °C 1015.5 in /  34384.8 hPa Calm     87 % 0.0 in /  0 mm 239.0 W/m2 CLR
09:00 6.7 °F /  -14.1 °C 4.3 °F /  -15.4 °C 1015.5 in /  34384.8 hPa Calm     85 % 0.0 in /  0 mm 258.0 W/m2 CLR
09:05 7.2 °F /  -13.8 °C 4.9 °F /  -15.1 °C 1015.5 in /  34384.8 hPa Calm     85 % 0.0 in /  0 mm 267.0 W/m2 CLR
09:10 7.8 °F /  -13.4 °C 5.1 °F /  -14.9 °C 1015.5 in /  34384.8 hPa Calm     83 % 0.0 in /  0 mm 299.0 W/m2 CLR
09:15 8.3 °F /  -13.2 °C 5.1 °F /  -14.9 °C 1015.5 in /  34384.8 hPa Calm     80 % 0.0 in /  0 mm 287.0 W/m2 CLR
09:20 8.9 °F /  -12.8 °C 5.4 °F /  -14.8 °C 1015.5 in /  34384.8 hPa Calm     79 % 0.0 in /  0 mm 339.0 W/m2 CLR
09:25 10.6 °F /  -11.9 °C 6.9 °F /  -13.9 °C 1015.5 in /  34384.8 hPa Calm     78 % 0.0 in /  0 mm 316.0 W/m2 CLR
09:30 11.1 °F /  -11.6 °C 7.2 °F /  -13.8 °C 1015.8 in /  34395 hPa ENE 1.9 mph /  3.1 km/h   77 % 0.0 in /  0 mm 327.0 W/m2 CLR
09:35 11.7 °F /  -11.3 °C 7.8 °F /  -13.4 °C 1015.5 in /  34384.8 hPa NE 1.9 mph /  3.1 km/h   77 % 0.0 in /  0 mm 336.0 W/m2 CLR
09:40 12.2 °F /  -11 °C 8.3 °F /  -13.2 °C 1015.5 in /  34384.8 hPa Calm     77 % 0.0 in /  0 mm 381.0 W/m2 CLR
09:46 12.8 °F /  -10.7 °C 8.7 °F /  -12.9 °C 1015.5 in /  34384.8 hPa Calm     76 % 0.0 in /  0 mm 366.0 W/m2 CLR
09:51 13.3 °F /  -10.4 °C 8.8 °F /  -12.9 °C 1015.5 in /  34384.8 hPa Calm     74 % 0.0 in /  0 mm 345.0 W/m2 CLR
09:56 13.3 °F /  -10.4 °C 8.6 °F /  -13 °C 1015.5 in /  34384.8 hPa Calm     73 % 0.0 in /  0 mm 388.0 W/m2 CLR
10:01 13.9 °F /  -10.1 °C 9.3 °F /  -12.6 °C 1015.5 in /  34384.8 hPa Calm     74 % 0.0 in /  0 mm 427.0 W/m2 CLR
10:06 13.9 °F /  -10.1 °C 9.1 °F /  -12.7 °C 1015.5 in /  34384.8 hPa Calm     73 % 0.0 in /  0 mm 473.0 W/m2 CLR
10:11 14.4 °F /  -9.8 °C 9.4 °F /  -12.6 °C 1015.5 in /  34384.8 hPa Calm     72 % 0.0 in /  0 mm 499.0 W/m2 CLR
10:16 14.4 °F /  -9.8 °C 9.1 °F /  -12.7 °C 1015.5 in /  34384.8 hPa Calm     70 % 0.0 in /  0 mm 508.0 W/m2 CLR
10:21 15.0 °F /  -9.4 °C 9.1 °F /  -12.7 °C 1015.5 in /  34384.8 hPa Calm     68 % 0.0 in /  0 mm 526.0 W/m2 CLR
10:26 15.0 °F /  -9.4 °C 9.1 °F /  -12.7 °C 1015.5 in /  34384.8 hPa Calm     68 % 0.0 in /  0 mm 510.0 W/m2 CLR
10:31 15.6 °F /  -9.1 °C 9.2 °F /  -12.7 °C 1015.1 in /  34371.3 hPa Calm     66 % 0.0 in /  0 mm 543.0 W/m2 CLR
10:36 16.1 °F /  -8.8 °C 9.5 °F /  -12.5 °C 1015.1 in /  34371.3 hPa Calm     65 % 0.0 in /  0 mm 443.0 W/m2 CLR
10:41 16.1 °F /  -8.8 °C 9.3 °F /  -12.6 °C 1015.1 in /  34371.3 hPa Calm     64 % 0.0 in /  0 mm 564.0 W/m2 CLR
10:46 16.7 °F /  -8.5 °C 9.6 °F /  -12.4 °C 1015.1 in /  34371.3 hPa NNE 1.9 mph /  3.1 km/h   63 % 0.0 in /  0 mm 476.0 W/m2 CLR
10:51 16.7 °F /  -8.5 °C 10.1 °F /  -12.2 °C 1015.1 in /  34371.3 hPa Calm     65 % 0.0 in /  0 mm 504.0 W/m2 CLR
10:56 17.2 °F /  -8.2 °C 10.1 °F /  -12.2 °C 1015.1 in /  34371.3 hPa East 3.7 mph /  6 km/h 3.7 mph /  6 km/h 63 % 0.0 in /  0 mm 492.0 W/m2 CLR
11:01 17.2 °F /  -8.2 °C 9.9 °F /  -12.3 °C 1015.1 in /  34371.3 hPa ENE 3.7 mph /  6 km/h 3.7 mph /  6 km/h 62 % 0.0 in /  0 mm 373.0 W/m2 CLR
11:06 17.2 °F /  -8.2 °C 9.9 °F /  -12.3 °C 1014.8 in /  34361.1 hPa ENE 5.6 mph /  9 km/h 5.6 mph /  9 km/h 62 % 0.0 in /  0 mm 475.0 W/m2 CLR
11:11 17.8 °F /  -7.9 °C 10.6 °F /  -11.9 °C 1014.8 in /  34361.1 hPa ENE 7.4 mph /  11.9 km/h 7.4 mph /  11.9 km/h 63 % 0.0 in /  0 mm 311.0 W/m2 CLR
11:16 16.7 °F /  -8.5 °C 9.6 °F /  -12.4 °C 1014.8 in /  34361.1 hPa ENE 5.6 mph /  9 km/h 5.6 mph /  9 km/h 63 % 0.0 in /  0 mm 403.0 W/m2 CLR
11:21 16.7 °F /  -8.5 °C 9.8 °F /  -12.3 °C 1014.8 in /  34361.1 hPa ENE 7.4 mph /  11.9 km/h 7.4 mph /  11.9 km/h 64 % 0.0 in /  0 mm 510.0 W/m2 CLR
11:26 17.2 °F /  -8.2 °C 10.3 °F /  -12.1 °C 1014.8 in /  34361.1 hPa ENE 6.4 mph /  10.3 km/h 6.4 mph /  10.3 km/h 64 % 0.0 in /  0 mm 615.0 W/m2 CLR
11:31 17.2 °F /  -8.2 °C 10.3 °F /  -12.1 °C 1014.8 in /  34361.1 hPa ENE 8.0 mph /  12.9 km/h 8.0 mph /  12.9 km/h 64 % 0.0 in /  0 mm 274.0 W/m2 CLR
11:36 16.7 °F /  -8.5 °C 10.1 °F /  -12.2 °C 1014.8 in /  34361.1 hPa ENE 7.4 mph /  11.9 km/h 7.4 mph /  11.9 km/h 65 % 0.0 in /  0 mm 301.0 W/m2 CLR
11:41 17.2 °F /  -8.2 °C 10.6 °F /  -11.9 °C 1014.8 in /  34361.1 hPa ENE 5.6 mph /  9 km/h 5.6 mph /  9 km/h 65 % 0.0 in /  0 mm 288.0 W/m2 CLR
11:46 17.8 °F /  -7.9 °C 11.3 °F /  -11.5 °C 1014.8 in /  34361.1 hPa ENE 9.7 mph /  15.6 km/h 9.7 mph /  15.6 km/h 66 % 0.0 in /  0 mm 749.0 W/m2 CLR
11:51 18.3 °F /  -7.6 °C 11.4 °F /  -11.4 °C 1014.8 in /  34361.1 hPa ENE 13.0 mph /  20.9 km/h 13.0 mph /  20.9 km/h 64 % 0.0 in /  0 mm 633.0 W/m2 CLR
11:56 18.3 °F /  -7.6 °C 11.4 °F /  -11.4 °C 1014.8 in /  34361.1 hPa NE 5.6 mph /  9 km/h 5.6 mph /  9 km/h 64 % 0.0 in /  0 mm 670.0 W/m2 CLR
12:01 18.9 °F /  -7.3 °C 11.4 °F /  -11.4 °C 1014.4 in /  34347.6 hPa ENE 8.0 mph /  12.9 km/h 8.0 mph /  12.9 km/h 62 % 0.0 in /  0 mm 729.0 W/m2 CLR
12:06 19.4 °F /  -7 °C 11.5 °F /  -11.4 °C 1014.4 in /  34347.6 hPa ESE 5.6 mph /  9 km/h 5.6 mph /  9 km/h 60 % 0.0 in /  0 mm 715.0 W/m2 CLR
12:11 20.0 °F /  -6.7 °C 11.7 °F /  -11.3 °C 1014.4 in /  34347.6 hPa ENE 5.6 mph /  9 km/h 5.6 mph /  9 km/h 59 % 0.0 in /  0 mm 696.0 W/m2 CLR
12:16 20.0 °F /  -6.7 °C 11.5 °F /  -11.4 °C 1014.4 in /  34347.6 hPa NE 14.8 mph /  23.8 km/h 14.8 mph /  23.8 km/h 58 % 0.0 in /  0 mm 800.0 W/m2 CLR
12:21 20.0 °F /  -6.7 °C 11.5 °F /  -11.4 °C 1014.1 in /  34337.4 hPa NE 9.3 mph /  15 km/h 9.3 mph /  15 km/h 58 % 0.0 in /  0 mm 772.0 W/m2 CLR
12:26 19.4 °F /  -7 °C 11.2 °F /  -11.6 °C 1014.1 in /  34337.4 hPa ENE 16.1 mph /  25.9 km/h 16.1 mph /  25.9 km/h 59 % 0.0 in /  0 mm 796.0 W/m2 CLR
12:31 20.6 °F /  -6.3 °C 11.4 °F /  -11.4 °C 1014.1 in /  34337.4 hPa East 11.1 mph /  17.9 km/h 11.1 mph /  17.9 km/h 56 % 0.0 in /  0 mm 835.0 W/m2 CLR
12:36 21.1 °F /  -6.1 °C 12.0 °F /  -11.1 °C 1014.1 in /  34337.4 hPa East 5.6 mph /  9 km/h 5.6 mph /  9 km/h 56 % 0.0 in /  0 mm 761.0 W/m2 CLR
12:41 20.6 °F /  -6.3 °C 11.2 °F /  -11.6 °C 1013.8 in /  34327.3 hPa Calm     55 % 0.0 in /  0 mm 578.0 W/m2 CLR
12:46 20.0 °F /  -6.7 °C 10.9 °F /  -11.7 °C 1013.8 in /  34327.3 hPa East 13.0 mph /  20.9 km/h 13.0 mph /  20.9 km/h 56 % 0.0 in /  0 mm 373.0 W/m2 CLR
12:51 20.0 °F /  -6.7 °C 10.7 °F /  -11.8 °C 1013.8 in /  34327.3 hPa ENE 12.9 mph /  20.8 km/h 12.9 mph /  20.8 km/h 55 % 0.0 in /  0 mm 761.0 W/m2 CLR
12:56 20.6 °F /  -6.3 °C 11.2 °F /  -11.6 °C 1013.4 in /  34313.7 hPa East 13.0 mph /  20.9 km/h 13.0 mph /  20.9 km/h 55 % 0.0 in /  0 mm 649.0 W/m2 CLR
13:01 20.6 °F /  -6.3 °C 10.9 °F /  -11.7 °C 1013.4 in /  34313.7 hPa East 6.4 mph /  10.3 km/h 6.4 mph /  10.3 km/h 54 % 0.0 in /  0 mm 559.0 W/m2 CLR
13:06 20.6 °F /  -6.3 °C 10.7 °F /  -11.8 °C 1013.4 in /  34313.7 hPa ENE 14.8 mph /  23.8 km/h 14.8 mph /  23.8 km/h 53 % 0.0 in /  0 mm 752.0 W/m2 CLR
13:11 20.6 °F /  -6.3 °C 10.1 °F /  -12.2 °C 1013.4 in /  34313.7 hPa East 22.5 mph /  36.2 km/h 22.5 mph /  36.2 km/h 51 % 0.0 in /  0 mm 621.0 W/m2 CLR
13:16 20.0 °F /  -6.7 °C 10.1 °F /  -12.2 °C 1013.1 in /  34303.6 hPa SE 18.5 mph /  29.8 km/h 18.5 mph /  29.8 km/h 53 % 0.0 in /  0 mm 452.0 W/m2 CLR
13:21 20.0 °F /  -6.7 °C 9.6 °F /  -12.4 °C 1013.4 in /  34313.7 hPa SSE 9.3 mph /  15 km/h 9.3 mph /  15 km/h 51 % 0.0 in /  0 mm 318.0 W/m2 CLR
13:31 20.0 °F /  -6.7 °C 9.8 °F /  -12.3 °C 1013.1 in /  34303.6 hPa ESE 8.0 mph /  12.9 km/h 8.0 mph /  12.9 km/h 52 % 0.0 in /  0 mm 308.0 W/m2 CLR
13:36 20.0 °F /  -6.7 °C 10.1 °F /  -12.2 °C 1012.8 in /  34293.4 hPa SE 8.0 mph /  12.9 km/h 8.0 mph /  12.9 km/h 53 % 0.0 in /  0 mm 308.0 W/m2 CLR
13:42 20.0 °F /  -6.7 °C 10.1 °F /  -12.2 °C 1012.8 in /  34293.4 hPa ENE 27.8 mph /  44.7 km/h 27.8 mph /  44.7 km/h 53 % 0.0 in /  0 mm 295.0 W/m2 CLR
13:47 20.6 °F /  -6.3 °C 10.7 °F /  -11.8 °C 1012.8 in /  34293.4 hPa ESE 18.5 mph /  29.8 km/h 18.5 mph /  29.8 km/h 53 % 0.0 in /  0 mm 900.0 W/m2 CLR
13:52 21.1 °F /  -6.1 °C 10.6 °F /  -11.9 °C 1012.8 in /  34293.4 hPa SE 18.5 mph /  29.8 km/h 18.5 mph /  29.8 km/h 51 % 0.0 in /  0 mm 847.0 W/m2 CLR
13:57 21.1 °F /  -6.1 °C 10.3 °F /  -12.1 °C 1012.4 in /  34279.9 hPa East 24.1 mph /  38.8 km/h 24.1 mph /  38.8 km/h 50 % 0.0 in /  0 mm 865.0 W/m2 CLR
14:02 21.1 °F /  -6.1 °C 10.6 °F /  -11.9 °C 1012.4 in /  34279.9 hPa East 18.5 mph /  29.8 km/h 18.5 mph /  29.8 km/h 51 % 0.0 in /  0 mm 427.0 W/m2 CLR
14:07 21.1 °F /  -6.1 °C 10.3 °F /  -12.1 °C 1012.4 in /  34279.9 hPa SSE 14.8 mph /  23.8 km/h 14.8 mph /  23.8 km/h 50 % 0.0 in /  0 mm 350.0 W/m2 CLR
14:12 20.6 °F /  -6.3 °C 9.8 °F /  -12.3 °C 1012.4 in /  34279.9 hPa SE 14.8 mph /  23.8 km/h 14.8 mph /  23.8 km/h 50 % 0.0 in /  0 mm 369.0 W/m2 CLR
14:17 20.0 °F /  -6.7 °C 8.9 °F /  -12.8 °C 1012.4 in /  34279.9 hPa ESE 22.2 mph /  35.7 km/h 22.2 mph /  35.7 km/h 49 % 0.0 in /  0 mm 381.0 W/m2 CLR
14:22 20.6 °F /  -6.3 °C 9.8 °F /  -12.3 °C 1012.4 in /  34279.9 hPa East 18.5 mph /  29.8 km/h 18.5 mph /  29.8 km/h 50 % 0.0 in /  0 mm 387.0 W/m2 CLR
14:27 21.1 °F /  -6.1 °C 10.3 °F /  -12.1 °C 1012.1 in /  34269.7 hPa ENE 14.8 mph /  23.8 km/h 14.8 mph /  23.8 km/h 50 % 0.0 in /  0 mm 626.0 W/m2 CLR
14:32 21.1 °F /  -6.1 °C 10.6 °F /  -11.9 °C 1012.1 in /  34269.7 hPa East 5.6 mph /  9 km/h 5.6 mph /  9 km/h 51 % 0.0 in /  0 mm 381.0 W/m2 CLR
14:37 21.1 °F /  -6.1 °C 10.0 °F /  -12.2 °C 1012.1 in /  34269.7 hPa SE 13.0 mph /  20.9 km/h 13.0 mph /  20.9 km/h 49 % 0.0 in /  0 mm 501.0 W/m2 CLR
14:42 21.1 °F /  -6.1 °C 10.3 °F /  -12.1 °C 1012.1 in /  34269.7 hPa SE 13.0 mph /  20.9 km/h 13.0 mph /  20.9 km/h 50 % 0.0 in /  0 mm 499.0 W/m2 CLR
14:47 21.1 °F /  -6.1 °C 10.6 °F /  -11.9 °C 1012.1 in /  34269.7 hPa ESE 5.6 mph /  9 km/h 5.6 mph /  9 km/h 51 % 0.0 in /  0 mm 550.0 W/m2 CLR
14:52 21.1 °F /  -6.1 °C 10.3 °F /  -12.1 °C 1012.1 in /  34269.7 hPa SE 14.8 mph /  23.8 km/h 14.8 mph /  23.8 km/h 50 % 0.0 in /  0 mm 842.0 W/m2 CLR
14:57 21.1 °F /  -6.1 °C 10.0 °F /  -12.2 °C 1011.7 in /  34256.2 hPa SE 13.0 mph /  20.9 km/h 13.0 mph /  20.9 km/h 49 % 0.0 in /  0 mm 374.0 W/m2 CLR
15:02 21.1 °F /  -6.1 °C 10.0 °F /  -12.2 °C 1011.7 in /  34256.2 hPa SE 9.3 mph /  15 km/h 9.3 mph /  15 km/h 49 % 0.0 in /  0 mm 642.0 W/m2 CLR
15:07 21.1 °F /  -6.1 °C 10.3 °F /  -12.1 °C 1011.7 in /  34256.2 hPa SE 8.0 mph /  12.9 km/h 8.0 mph /  12.9 km/h 50 % 0.0 in /  0 mm 457.0 W/m2 CLR
15:12 20.6 °F /  -6.3 °C 9.8 °F /  -12.3 °C 1011.4 in /  34246 hPa SE 18.5 mph /  29.8 km/h 18.5 mph /  29.8 km/h 50 % 0.0 in /  0 mm 506.0 W/m2 CLR
15:17 21.1 °F /  -6.1 °C 10.3 °F /  -12.1 °C 1011.4 in /  34246 hPa SE 9.3 mph /  15 km/h 9.3 mph /  15 km/h 50 % 0.0 in /  0 mm 587.0 W/m2 CLR
15:22 21.1 °F /  -6.1 °C 10.6 °F /  -11.9 °C 1011.4 in /  34246 hPa ENE 7.4 mph /  11.9 km/h 7.4 mph /  11.9 km/h 51 % 0.0 in /  0 mm 559.0 W/m2 CLR
15:27 21.7 °F /  -5.7 °C 11.1 °F /  -11.6 °C 1011.4 in /  34246 hPa East 14.8 mph /  23.8 km/h 14.8 mph /  23.8 km/h 51 % 0.0 in /  0 mm 636.0 W/m2 CLR
15:32 21.7 °F /  -5.7 °C 10.5 °F /  -11.9 °C 1011.4 in /  34246 hPa ENE 14.5 mph /  23.3 km/h 14.5 mph /  23.3 km/h 49 % 0.0 in /  0 mm 603.0 W/m2 CLR
15:37 21.1 °F /  -6.1 °C 10.3 °F /  -12.1 °C 1011.1 in /  34235.8 hPa ENE 16.7 mph /  26.9 km/h 16.7 mph /  26.9 km/h 50 % 0.0 in /  0 mm 571.0 W/m2 CLR
15:42 21.7 °F /  -5.7 °C 10.8 °F /  -11.8 °C 1011.1 in /  34235.8 hPa ESE 24.1 mph /  38.8 km/h 24.1 mph /  38.8 km/h 50 % 0.0 in /  0 mm 557.0 W/m2 CLR
15:47 21.1 °F /  -6.1 °C 10.3 °F /  -12.1 °C 1010.7 in /  34222.3 hPa ENE 14.8 mph /  23.8 km/h 14.8 mph /  23.8 km/h 50 % 0.0 in /  0 mm 517.0 W/m2 CLR
15:52 21.1 °F /  -6.1 °C 10.6 °F /  -11.9 °C 1010.7 in /  34222.3 hPa East 18.5 mph /  29.8 km/h 18.5 mph /  29.8 km/h 51 % 0.0 in /  0 mm 533.0 W/m2 CLR
15:57 21.1 °F /  -6.1 °C 10.3 °F /  -12.1 °C 1010.7 in /  34222.3 hPa SE 24.1 mph /  38.8 km/h 24.1 mph /  38.8 km/h 50 % 0.0 in /  0 mm 527.0 W/m2 CLR
16:02 21.1 °F /  -6.1 °C 10.6 °F /  -11.9 °C 1010.7 in /  34222.3 hPa East 18.5 mph /  29.8 km/h 18.5 mph /  29.8 km/h 51 % 0.0 in /  0 mm 135.0 W/m2 CLR
16:07 20.6 °F /  -6.3 °C 10.3 °F /  -12.1 °C 1010.7 in /  34222.3 hPa East 3.7 mph /  6 km/h 3.7 mph /  6 km/h 52 % 0.0 in /  0 mm 162.0 W/m2 CLR
16:12 20.0 °F /  -6.7 °C 9.8 °F /  -12.3 °C 1010.7 in /  34222.3 hPa East 25.9 mph /  41.7 km/h 25.9 mph /  41.7 km/h 52 % 0.0 in /  0 mm 186.0 W/m2 CLR
16:17 20.0 °F /  -6.7 °C 10.1 °F /  -12.2 °C 1010.7 in /  34222.3 hPa ESE 20.4 mph /  32.8 km/h 20.4 mph /  32.8 km/h 53 % 0.0 in /  0 mm 186.0 W/m2 CLR
16:22 20.0 °F /  -6.7 °C 10.4 °F /  -12 °C 1010.7 in /  34222.3 hPa ESE 16.7 mph /  26.9 km/h 16.7 mph /  26.9 km/h 54 % 0.0 in /  0 mm 169.0 W/m2 CLR
16:27 19.4 °F /  -7 °C 9.9 °F /  -12.3 °C 1010.7 in /  34222.3 hPa SSE 19.3 mph /  31.1 km/h 19.3 mph /  31.1 km/h 54 % 0.0 in /  0 mm 178.0 W/m2 CLR
16:32 19.4 °F /  -7 °C 10.2 °F /  -12.1 °C 1010.7 in /  34222.3 hPa SE 13.0 mph /  20.9 km/h 13.0 mph /  20.9 km/h 55 % 0.0 in /  0 mm 193.0 W/m2 CLR
16:37 19.4 °F /  -7 °C 10.2 °F /  -12.1 °C 1010.4 in /  34212.1 hPa ESE 7.4 mph /  11.9 km/h 7.4 mph /  11.9 km/h 55 % 0.0 in /  0 mm 214.0 W/m2 CLR
16:42 19.4 °F /  -7 °C 10.2 °F /  -12.1 °C 1010.4 in /  34212.1 hPa East 14.8 mph /  23.8 km/h 14.8 mph /  23.8 km/h 55 % 0.0 in /  0 mm 207.0 W/m2 CLR
16:47 19.4 °F /  -7 °C 10.2 °F /  -12.1 °C 1010.4 in /  34212.1 hPa SE 5.6 mph /  9 km/h 5.6 mph /  9 km/h 55 % 0.0 in /  0 mm 167.0 W/m2 CLR
16:52 19.4 °F /  -7 °C 10.2 °F /  -12.1 °C 1010.4 in /  34212.1 hPa SE 13.0 mph /  20.9 km/h 13.0 mph /  20.9 km/h 55 % 0.0 in /  0 mm 144.0 W/m2 CLR
16:57 19.4 °F /  -7 °C 10.2 °F /  -12.1 °C 1010.4 in /  34212.1 hPa SE 7.4 mph /  11.9 km/h 7.4 mph /  11.9 km/h 55 % 0.0 in /  0 mm 128.0 W/m2 CLR
17:02 18.9 °F /  -7.3 °C 9.9 °F /  -12.3 °C 1010.4 in /  34212.1 hPa SE 5.6 mph /  9 km/h 5.6 mph /  9 km/h 56 % 0.0 in /  0 mm 114.0 W/m2 CLR
17:07 18.9 °F /  -7.3 °C 10.2 °F /  -12.1 °C 1010.4 in /  34212.1 hPa SE 9.7 mph /  15.6 km/h 9.7 mph /  15.6 km/h 57 % 0.0 in /  0 mm 114.0 W/m2 CLR
17:12 18.9 °F /  -7.3 °C 10.2 °F /  -12.1 °C 1010.4 in /  34212.1 hPa SE 5.6 mph /  9 km/h 5.6 mph /  9 km/h 57 % 0.0 in /  0 mm 111.0 W/m2 CLR
17:17 18.9 °F /  -7.3 °C 10.2 °F /  -12.1 °C 1010.4 in /  34212.1 hPa ESE 5.6 mph /  9 km/h 5.6 mph /  9 km/h 57 % 0.0 in /  0 mm 104.0 W/m2 CLR
17:22 18.9 °F /  -7.3 °C 10.4 °F /  -12 °C 1010.0 in /  34198.6 hPa ESE 3.2 mph /  5.1 km/h 3.2 mph /  5.1 km/h 58 % 0.0 in /  0 mm 98.0 W/m2 CLR
17:27 18.3 °F /  -7.6 °C 10.2 °F /  -12.1 °C 1010.0 in /  34198.6 hPa Calm     59 % 0.0 in /  0 mm 91.0 W/m2 CLR
17:32 18.3 °F /  -7.6 °C 10.2 °F /  -12.1 °C 1010.0 in /  34198.6 hPa Calm     59 % 0.0 in /  0 mm 93.0 W/m2 CLR
17:37 18.3 °F /  -7.6 °C 10.2 °F /  -12.1 °C 1010.0 in /  34198.6 hPa East 4.8 mph /  7.7 km/h 4.8 mph /  7.7 km/h 59 % 0.0 in /  0 mm 142.0 W/m2 CLR
17:42 18.3 °F /  -7.6 °C 10.2 °F /  -12.1 °C 1010.0 in /  34198.6 hPa Calm     59 % 0.0 in /  0 mm 72.0 W/m2 CLR
17:47 17.8 °F /  -7.9 °C 9.7 °F /  -12.4 °C 1010.0 in /  34198.6 hPa Calm   0.2 mph /  0.3 km/h 59 % 0.0 in /  0 mm 167.0 W/m2 CLR
17:52 18.3 °F /  -7.6 °C 10.4 °F /  -12 °C 1010.0 in /  34198.6 hPa Calm     60 % 0.0 in /  0 mm 185.0 W/m2 CLR
17:57 18.3 °F /  -7.6 °C 10.2 °F /  -12.1 °C 1010.0 in /  34198.6 hPa Calm     59 % 0.0 in /  0 mm 178.0 W/m2 CLR
18:02 18.3 °F /  -7.6 °C 10.2 °F /  -12.1 °C 1010.0 in /  34198.6 hPa East 1.6 mph /  2.6 km/h 1.6 mph /  2.6 km/h 59 % 0.0 in /  0 mm 169.0 W/m2 CLR
18:07 18.3 °F /  -7.6 °C 10.2 °F /  -12.1 °C 1010.0 in /  34198.6 hPa Calm     59 % 0.0 in /  0 mm 118.0 W/m2 CLR
18:12 18.3 °F /  -7.6 °C 10.4 °F /  -12 °C 1010.0 in /  34198.6 hPa East 3.7 mph /  6 km/h 3.7 mph /  6 km/h 60 % 0.0 in /  0 mm 105.0 W/m2 CLR
18:17 17.8 °F /  -7.9 °C 9.9 °F /  -12.3 °C 1010.0 in /  34198.6 hPa East 3.7 mph /  6 km/h 3.7 mph /  6 km/h 60 % 0.0 in /  0 mm 90.0 W/m2 CLR
18:22 17.8 °F /  -7.9 °C 9.9 °F /  -12.3 °C 1010.0 in /  34198.6 hPa Calm     60 % 0.0 in /  0 mm 67.0 W/m2 FEW
18:27 17.8 °F /  -7.9 °C 10.2 °F /  -12.1 °C 1010.0 in /  34198.6 hPa Calm     61 % 0.0 in /  0 mm 42.0 W/m2 BKN
18:32 17.8 °F /  -7.9 °C 10.4 °F /  -12 °C 1010.0 in /  34198.6 hPa Calm     62 % 0.0 in /  0 mm 32.0 W/m2 BKN
18:37 17.2 °F /  -8.2 °C 10.1 °F /  -12.2 °C 1010.0 in /  34198.6 hPa Calm   0.2 mph /  0.3 km/h 63 % 0.0 in /  0 mm 21.0 W/m2 BKN
18:42 17.2 °F /  -8.2 °C 10.1 °F /  -12.2 °C 1010.0 in /  34198.6 hPa Calm     63 % 0.0 in /  0 mm 11.0 W/m2 BKN
18:47 16.7 °F /  -8.5 °C 9.8 °F /  -12.3 °C 1010.4 in /  34212.1 hPa Calm     64 % 0.0 in /  0 mm 5.0 W/m2 OVC
18:52 16.7 °F /  -8.5 °C 10.1 °F /  -12.2 °C 1010.4 in /  34212.1 hPa Calm     65 % 0.0 in /  0 mm 5.0 W/m2 OVC
18:57 16.1 °F /  -8.8 °C 9.5 °F /  -12.5 °C 1010.4 in /  34212.1 hPa Calm     65 % 0.0 in /  0 mm 0.0 W/m2 OVC
19:02 16.1 °F /  -8.8 °C 9.5 °F /  -12.5 °C 1010.4 in /  34212.1 hPa Calm     65 % 0.0 in /  0 mm 0.0 W/m2 CLR
19:07 15.6 °F /  -9.1 °C 9.2 °F /  -12.7 °C 1010.4 in /  34212.1 hPa Calm     66 % 0.0 in /  0 mm 0.0 W/m2 CLR
19:12 15.6 °F /  -9.1 °C 9.2 °F /  -12.7 °C 1010.4 in /  34212.1 hPa Calm     66 % 0.0 in /  0 mm 0.0 W/m2 CLR
19:17 15.0 °F /  -9.4 °C 8.9 °F /  -12.8 °C 1010.7 in /  34222.3 hPa Calm     67 % 0.0 in /  0 mm 0.0 W/m2 CLR
19:22 15.0 °F /  -9.4 °C 8.9 °F /  -12.8 °C 1010.7 in /  34222.3 hPa Calm     67 % 0.0 in /  0 mm 0.0 W/m2 CLR
19:28 15.0 °F /  -9.4 °C 8.9 °F /  -12.8 °C 1010.7 in /  34222.3 hPa Calm     67 % 0.0 in /  0 mm 0.0 W/m2 CLR
19:33 15.0 °F /  -9.4 °C 8.9 °F /  -12.8 °C 1010.7 in /  34222.3 hPa Calm     67 % 0.0 in /  0 mm 0.0 W/m2 CLR
19:38 15.0 °F /  -9.4 °C 8.9 °F /  -12.8 °C 1010.7 in /  34222.3 hPa West 5.6 mph /  9 km/h 5.6 mph /  9 km/h 67 % 0.0 in /  0 mm 0.0 W/m2 CLR
19:43 15.0 °F /  -9.4 °C 9.1 °F /  -12.7 °C 1011.1 in /  34235.8 hPa WNW 3.7 mph /  6 km/h 3.7 mph /  6 km/h 68 % 0.0 in /  0 mm 0.0 W/m2 CLR
19:48 15.0 °F /  -9.4 °C 9.1 °F /  -12.7 °C 1011.1 in /  34235.8 hPa Calm     68 % 0.0 in /  0 mm 0.0 W/m2 CLR
19:53 15.6 °F /  -9.1 °C 9.7 °F /  -12.4 °C 1011.1 in /  34235.8 hPa Calm     68 % 0.0 in /  0 mm 0.0 W/m2 CLR
19:58 15.6 °F /  -9.1 °C 10.1 °F /  -12.2 °C 1011.4 in /  34246 hPa Calm     70 % 0.0 in /  0 mm 0.0 W/m2 CLR
20:03 15.6 °F /  -9.1 °C 10.3 °F /  -12.1 °C 1011.4 in /  34246 hPa West 6.4 mph /  10.3 km/h 6.4 mph /  10.3 km/h 71 % 0.0 in /  0 mm 0.0 W/m2 CLR
20:08 15.6 °F /  -9.1 °C 10.3 °F /  -12.1 °C 1011.4 in /  34246 hPa West 3.7 mph /  6 km/h 3.7 mph /  6 km/h 71 % 0.0 in /  0 mm 0.0 W/m2 CLR
20:13 15.0 °F /  -9.4 °C 9.8 °F /  -12.3 °C 1011.4 in /  34246 hPa West 3.7 mph /  6 km/h   71 % 0.0 in /  0 mm 0.0 W/m2 CLR
20:18 15.0 °F /  -9.4 °C 9.6 °F /  -12.4 °C 1011.4 in /  34246 hPa Calm     70 % 0.0 in /  0 mm 0.0 W/m2 CLR
20:23 15.0 °F /  -9.4 °C 9.6 °F /  -12.4 °C 1011.4 in /  34246 hPa Calm     70 % 0.0 in /  0 mm 0.0 W/m2 CLR
20:28 15.0 °F /  -9.4 °C 9.6 °F /  -12.4 °C 1011.1 in /  34235.8 hPa Calm     70 % 0.0 in /  0 mm 0.0 W/m2 CLR
20:33 14.4 °F /  -9.8 °C 9.1 °F /  -12.7 °C 1011.1 in /  34235.8 hPa West 1.9 mph /  3.1 km/h   70 % 0.0 in /  0 mm 0.0 W/m2 CLR
20:38 15.0 °F /  -9.4 °C 9.3 °F /  -12.6 °C 1011.1 in /  34235.8 hPa Calm     69 % 0.0 in /  0 mm 0.0 W/m2 CLR
20:43 14.4 °F /  -9.8 °C 8.8 °F /  -12.9 °C 1011.4 in /  34246 hPa WNW 7.4 mph /  11.9 km/h 7.4 mph /  11.9 km/h 69 % 0.0 in /  0 mm 0.0 W/m2 CLR
20:48 15.0 °F /  -9.4 °C 9.3 °F /  -12.6 °C 1011.4 in /  34246 hPa West 5.6 mph /  9 km/h 5.6 mph /  9 km/h 69 % 0.0 in /  0 mm 0.0 W/m2 CLR
20:53 15.0 °F /  -9.4 °C 9.6 °F /  -12.4 °C 1011.1 in /  34235.8 hPa WSW 5.6 mph /  9 km/h 5.6 mph /  9 km/h 70 % 0.0 in /  0 mm 0.0 W/m2 CLR
20:58 15.6 °F /  -9.1 °C 10.3 °F /  -12.1 °C 1011.1 in /  34235.8 hPa WNW 8.0 mph /  12.9 km/h 8.0 mph /  12.9 km/h 71 % 0.0 in /  0 mm 0.0 W/m2 CLR
21:03 15.6 °F /  -9.1 °C 10.3 °F /  -12.1 °C 1011.1 in /  34235.8 hPa West 5.6 mph /  9 km/h 5.6 mph /  9 km/h 71 % 0.0 in /  0 mm 0.0 W/m2 CLR
21:08 15.6 °F /  -9.1 °C 10.5 °F /  -11.9 °C 1011.1 in /  34235.8 hPa Calm     72 % 0.0 in /  0 mm 0.0 W/m2 CLR
21:13 15.0 °F /  -9.4 °C 10.0 °F /  -12.2 °C 1011.1 in /  34235.8 hPa Calm     72 % 0.0 in /  0 mm 0.0 W/m2 CLR
21:18 15.0 °F /  -9.4 °C 10.0 °F /  -12.2 °C 1011.1 in /  34235.8 hPa Calm     72 % 0.0 in /  0 mm 0.0 W/m2 CLR
21:23 15.0 °F /  -9.4 °C 9.8 °F /  -12.3 °C 1011.1 in /  34235.8 hPa Calm     71 % 0.0 in /  0 mm 0.0 W/m2 CLR
21:28 15.0 °F /  -9.4 °C 9.8 °F /  -12.3 °C 1011.1 in /  34235.8 hPa Calm     71 % 0.0 in /  0 mm 0.0 W/m2 CLR
21:33 15.0 °F /  -9.4 °C 9.8 °F /  -12.3 °C 1011.1 in /  34235.8 hPa West 8.0 mph /  12.9 km/h 8.0 mph /  12.9 km/h 71 % 0.0 in /  0 mm 0.0 W/m2 CLR
21:38 15.0 °F /  -9.4 °C 9.8 °F /  -12.3 °C 1011.1 in /  34235.8 hPa West 7.4 mph /  11.9 km/h 7.4 mph /  11.9 km/h 71 % 0.0 in /  0 mm 0.0 W/m2 CLR
21:43 15.0 °F /  -9.4 °C 9.8 °F /  -12.3 °C 1011.1 in /  34235.8 hPa West 5.6 mph /  9 km/h   71 % 0.0 in /  0 mm 0.0 W/m2 CLR
21:48 15.0 °F /  -9.4 °C 9.8 °F /  -12.3 °C 1011.1 in /  34235.8 hPa Calm     71 % 0.0 in /  0 mm 0.0 W/m2 CLR
21:53 14.4 °F /  -9.8 °C 9.2 °F /  -12.7 °C 1011.1 in /  34235.8 hPa Calm     71 % 0.0 in /  0 mm 0.0 W/m2 CLR
21:58 14.4 °F /  -9.8 °C 9.4 °F /  -12.6 °C 1011.1 in /  34235.8 hPa Calm     72 % 0.0 in /  0 mm 0.0 W/m2 CLR
22:03 14.4 °F /  -9.8 °C 9.4 °F /  -12.6 °C 1011.1 in /  34235.8 hPa Calm     72 % 0.0 in /  0 mm 0.0 W/m2 CLR
22:08 13.9 °F /  -10.1 °C 9.1 °F /  -12.7 °C 1011.1 in /  34235.8 hPa Calm     73 % 0.0 in /  0 mm 0.0 W/m2 CLR
22:13 13.9 °F /  -10.1 °C 9.6 °F /  -12.4 °C 1011.4 in /  34246 hPa Calm     75 % 0.0 in /  0 mm 0.0 W/m2 CLR
22:18 13.3 °F /  -10.4 °C 9.2 °F /  -12.7 °C 1011.4 in /  34246 hPa Calm     76 % 0.0 in /  0 mm 0.0 W/m2 CLR
22:23 13.3 °F /  -10.4 °C 9.4 °F /  -12.6 °C 1011.4 in /  34246 hPa Calm     77 % 0.0 in /  0 mm 0.0 W/m2 CLR
22:28 13.3 °F /  -10.4 °C 9.4 °F /  -12.6 °C 1011.4 in /  34246 hPa Calm     77 % 0.0 in /  0 mm 0.0 W/m2 CLR
22:33 13.3 °F /  -10.4 °C 9.6 °F /  -12.4 °C 1011.4 in /  34246 hPa Calm     78 % 0.0 in /  0 mm 0.0 W/m2 CLR
22:38 13.3 °F /  -10.4 °C 9.6 °F /  -12.4 °C 1011.4 in /  34246 hPa Calm     78 % 0.3 in /  7.62 mm 0.0 W/m2 RA
22:43 12.8 °F /  -10.7 °C 9.4 °F /  -12.6 °C 1011.4 in /  34246 hPa Calm     80 % 0.3 in /  7.62 mm 0.0 W/m2 CLR
22:44 12.8 °F /  -10.7 °C 9.4 °F /  -12.6 °C 1011.4 in /  34246 hPa Calm     80 % 0.3 in /  7.62 mm 0.0 W/m2 CLR
22:49 12.8 °F /  -10.7 °C 9.4 °F /  -12.6 °C 1011.4 in /  34246 hPa Calm     80 % 0.3 in /  7.62 mm 0.0 W/m2 CLR
22:54 12.8 °F /  -10.7 °C 9.8 °F /  -12.3 °C 1011.1 in /  34235.8 hPa Calm     82 % 0.3 in /  7.62 mm 0.0 W/m2 CLR
22:59 12.8 °F /  -10.7 °C 9.9 °F /  -12.3 °C 1011.4 in /  34246 hPa Calm     83 % 0.3 in /  7.62 mm 0.0 W/m2 CLR
23:04 12.8 °F /  -10.7 °C 10.2 °F /  -12.1 °C 1011.4 in /  34246 hPa Calm     84 % 0.3 in /  7.62 mm 0.0 W/m2 CLR
23:09 12.2 °F /  -11 °C 9.6 °F /  -12.4 °C 1011.1 in /  34235.8 hPa Calm     84 % 0.3 in /  7.62 mm 0.0 W/m2 CLR
23:14 12.2 °F /  -11 °C 9.8 °F /  -12.3 °C 1011.1 in /  34235.8 hPa Calm     85 % 0.3 in /  7.62 mm 0.0 W/m2 CLR
23:19 12.2 °F /  -11 °C 9.9 °F /  -12.3 °C 1011.1 in /  34235.8 hPa Calm     86 % 0.3 in /  7.62 mm 0.0 W/m2 CLR
23:24 12.2 °F /  -11 °C 9.9 °F /  -12.3 °C 1011.1 in /  34235.8 hPa Calm     86 % 0.3 in /  7.62 mm 0.0 W/m2 CLR
23:29 12.2 °F /  -11 °C 10.1 °F /  -12.2 °C 1011.1 in /  34235.8 hPa Calm     87 % 0.3 in /  7.62 mm 0.0 W/m2 CLR
23:34 11.7 °F /  -11.3 °C 9.6 °F /  -12.4 °C 1010.7 in /  34222.3 hPa Calm     87 % 0.0 in /  0 mm 0.0 W/m2 CLR
23:39 11.7 °F /  -11.3 °C 9.6 °F /  -12.4 °C 1010.7 in /  34222.3 hPa Calm     87 % 0.0 in /  0 mm 0.0 W/m2 CLR
23:44 11.7 °F /  -11.3 °C 9.6 °F /  -12.4 °C 1010.7 in /  34222.3 hPa Calm     87 % 0.0 in /  0 mm 0.0 W/m2 CLR
23:49 11.1 °F /  -11.6 °C 9.1 °F /  -12.7 °C 1010.7 in /  34222.3 hPa Calm     87 % 0.0 in /  0 mm 0.0 W/m2 CLR
23:54 11.1 °F /  -11.6 °C 8.8 °F /  -12.9 °C 1010.7 in /  34222.3 hPa Calm     86 % 0.0 in /  0 mm 0.0 W/m2 CLR
23:59 11.7 °F /  -11.3 °C 9.4 °F /  -12.6 °C 1010.7 in /  34222.3 hPa Calm     86 % 0.0 in /  0 mm 0.0 W/m2 CLR
Lo Temps de Massalio
Compliments of Weather Underground - 1.25 mb